createdAt,value
2018-08-23T00:01:30.061Z,19.60
2018-08-23T00:04:04.485Z,19.60
2018-08-23T00:06:32.184Z,19.60
2018-08-23T00:08:59.876Z,19.50
2018-08-23T00:11:29.096Z,19.50
2018-08-23T00:13:56.918Z,19.50
2018-08-23T00:16:31.680Z,19.50
2018-08-23T00:18:59.763Z,19.50
2018-08-23T00:21:27.987Z,19.50
2018-08-23T00:24:09.553Z,19.40
2018-08-23T00:26:38.418Z,19.40
2018-08-23T00:29:38.846Z,19.30
2018-08-23T00:32:07.462Z,19.30
2018-08-23T00:34:36.346Z,19.10
2018-08-23T00:37:04.743Z,19.10
2018-08-23T00:39:32.418Z,19.00
2018-08-23T00:42:05.153Z,19.00
2018-08-23T00:44:53.394Z,19.00
2018-08-23T00:47:24.848Z,19.00
2018-08-23T00:49:52.455Z,18.90
2018-08-23T00:52:46.321Z,18.80
2018-08-23T00:55:23.664Z,18.80
2018-08-23T00:57:51.354Z,18.80
2018-08-23T01:00:22.184Z,18.80
2018-08-23T01:02:51.119Z,18.70
2018-08-23T01:05:24.657Z,18.70
2018-08-23T01:07:52.637Z,18.80
2018-08-23T01:10:20.630Z,18.70
2018-08-23T01:12:59.394Z,18.70
2018-08-23T01:15:27.604Z,18.70
2018-08-23T01:18:10.997Z,18.70
2018-08-23T01:20:39.536Z,18.70
2018-08-23T01:23:07.217Z,18.60
2018-08-23T01:25:36.312Z,18.50
2018-08-23T01:28:04.492Z,18.40
2018-08-23T01:30:32.237Z,18.40
2018-08-23T01:32:59.971Z,18.40
2018-08-23T01:35:27.910Z,18.30
2018-08-23T01:37:55.636Z,18.20
2018-08-23T01:40:23.333Z,18.30
2018-08-23T01:42:51.029Z,18.20
2018-08-23T01:45:18.759Z,18.20
2018-08-23T01:47:51.988Z,18.20
2018-08-23T01:50:19.656Z,18.20
2018-08-23T01:52:48.366Z,18.20
2018-08-23T01:55:16.898Z,18.10
2018-08-23T01:57:44.856Z,18.10
2018-08-23T02:00:13.674Z,18.10
2018-08-23T02:02:41.402Z,18.10
2018-08-23T02:05:09.154Z,18.10
2018-08-23T02:07:43.594Z,18.00
2018-08-23T02:10:11.299Z,18.00
2018-08-23T02:12:38.923Z,18.10
2018-08-23T02:15:09.904Z,18.10
2018-08-23T02:17:44.116Z,18.10
2018-08-23T02:20:11.846Z,18.20
2018-08-23T02:22:39.538Z,18.20
2018-08-23T02:25:07.516Z,18.10
2018-08-23T02:27:51.147Z,18.10
2018-08-23T02:30:38.640Z,18.10
2018-08-23T02:33:06.376Z,18.00
2018-08-23T02:35:34.483Z,18.00
2018-08-23T02:38:02.152Z,18.00
2018-08-23T02:40:30.861Z,18.00
2018-08-23T02:42:58.549Z,18.10
2018-08-23T02:45:30.902Z,18.00
2018-08-23T02:47:59.955Z,18.00
2018-08-23T02:50:27.616Z,17.90
2018-08-23T02:52:59.963Z,17.90
2018-08-23T02:55:27.679Z,17.80
2018-08-23T02:57:59.012Z,17.80
2018-08-23T03:00:31.410Z,17.80
2018-08-23T03:03:00.966Z,17.70
2018-08-23T03:05:28.630Z,17.70
2018-08-23T03:07:56.310Z,17.80
2018-08-23T03:10:24.060Z,17.80
2018-08-23T03:12:51.797Z,17.80
2018-08-23T03:15:24.361Z,17.80
2018-08-23T03:17:52.891Z,17.80
2018-08-23T03:20:20.696Z,17.80
2018-08-23T03:22:53.329Z,17.70
2018-08-23T03:25:22.097Z,17.60
2018-08-23T03:27:51.030Z,17.60
2018-08-23T03:30:19.355Z,17.60
2018-08-23T03:32:47.040Z,17.60
2018-08-23T03:35:14.799Z,17.50
2018-08-23T03:37:42.595Z,17.50
2018-08-23T03:40:12.148Z,17.50
2018-08-23T03:42:40.050Z,17.50
2018-08-23T03:45:14.761Z,17.50
2018-08-23T03:47:48.353Z,17.50
2018-08-23T03:50:16.117Z,17.50
2018-08-23T03:52:46.554Z,17.50
2018-08-23T03:55:18.046Z,17.50
2018-08-23T03:57:50.959Z,17.50
2018-08-23T04:00:25.757Z,17.50
2018-08-23T04:02:54.908Z,17.50
2018-08-23T04:05:22.625Z,17.40
2018-08-23T04:07:50.299Z,17.30
2018-08-23T04:10:18.024Z,17.40
2018-08-23T04:12:45.708Z,17.30
2018-08-23T04:15:31.312Z,17.40
2018-08-23T04:18:06.123Z,17.30
2018-08-23T04:20:33.835Z,17.40
2018-08-23T04:23:01.615Z,17.30
2018-08-23T04:25:29.243Z,17.40
2018-08-23T04:27:56.893Z,17.40
2018-08-23T04:30:24.521Z,17.40
2018-08-23T04:32:52.234Z,17.40
2018-08-23T04:35:24.690Z,17.50
2018-08-23T04:37:52.370Z,17.50
2018-08-23T04:40:20.009Z,17.50
2018-08-23T04:42:47.729Z,17.50
2018-08-23T04:45:18.311Z,17.50
2018-08-23T04:48:08.390Z,17.60
2018-08-23T04:50:37.321Z,17.60
2018-08-23T04:53:05.137Z,17.70
2018-08-23T04:55:32.848Z,17.70
2018-08-23T04:58:01.336Z,17.80
2018-08-23T05:00:29.787Z,17.90
2018-08-23T05:02:57.884Z,18.00
2018-08-23T05:05:25.887Z,18.00
2018-08-23T05:07:53.615Z,18.10
2018-08-23T05:10:21.695Z,18.20
2018-08-23T05:12:49.381Z,18.30
2018-08-23T05:15:17.081Z,18.40
2018-08-23T05:17:44.929Z,18.50
2018-08-23T05:20:12.711Z,18.60
2018-08-23T05:22:48.701Z,18.70
2018-08-23T05:25:16.518Z,18.80
2018-08-23T05:28:19.930Z,18.90
2018-08-23T05:30:48.431Z,19.00
2018-08-23T05:33:17.940Z,19.10
2018-08-23T05:35:46.009Z,19.10
2018-08-23T05:38:14.368Z,19.20
2018-08-23T05:40:44.840Z,19.30
2018-08-23T05:43:13.243Z,19.40
2018-08-23T05:45:47.784Z,19.60
2018-08-23T05:48:21.811Z,19.70
2018-08-23T05:50:49.788Z,19.80
2018-08-23T05:53:18.221Z,19.80
2018-08-23T05:55:50.570Z,20.00
2018-08-23T05:58:35.153Z,20.20
2018-08-23T06:01:03.170Z,20.30
2018-08-23T06:03:30.882Z,20.50
2018-08-23T06:05:58.745Z,20.60
2018-08-23T06:08:26.517Z,20.70
2018-08-23T06:10:57.687Z,20.80
2018-08-23T06:13:25.557Z,20.90
2018-08-23T06:15:54.216Z,20.90
2018-08-23T06:18:22.590Z,21.00
2018-08-23T06:20:50.335Z,21.20
2018-08-23T06:23:18.664Z,21.40
2018-08-23T06:25:47.022Z,21.60
2018-08-23T06:28:20.737Z,21.70
2018-08-23T06:30:48.444Z,22.00
2018-08-23T06:33:36.991Z,22.40
2018-08-23T06:36:05.507Z,22.50
2018-08-23T06:38:34.163Z,22.20
2018-08-23T06:41:03.109Z,22.20
2018-08-23T06:43:31.249Z,22.20
2018-08-23T06:45:59.642Z,22.40
2018-08-23T06:48:27.381Z,22.70
2018-08-23T06:50:57.312Z,23.00
2018-08-23T06:53:31.902Z,23.20
2018-08-23T06:55:59.650Z,23.00
2018-08-23T06:58:27.369Z,23.10
2018-08-23T07:00:54.999Z,23.20
2018-08-23T07:03:22.670Z,23.30
2018-08-23T07:05:50.562Z,23.50
2018-08-23T07:08:18.422Z,24.00
2018-08-23T07:10:46.122Z,24.20
2018-08-23T07:13:13.816Z,24.50
2018-08-23T07:15:46.113Z,24.60
2018-08-23T07:18:19.721Z,24.70
2018-08-23T07:20:47.427Z,24.50
2018-08-23T07:23:28.940Z,24.40
2018-08-23T07:25:56.635Z,24.80
2018-08-23T07:28:24.383Z,25.00
2018-08-23T07:30:53.616Z,24.90
2018-08-23T07:33:21.447Z,25.10
2018-08-23T07:36:05.517Z,25.20
2018-08-23T07:38:33.136Z,25.50
2018-08-23T07:41:00.840Z,25.50
2018-08-23T07:43:28.568Z,25.60
2018-08-23T07:45:56.258Z,25.90
2018-08-23T07:48:24.027Z,25.70
2018-08-23T07:50:51.763Z,25.60
2018-08-23T07:53:19.609Z,25.70
2018-08-23T07:55:47.175Z,25.60
2018-08-23T07:58:14.957Z,25.80
2018-08-23T08:00:43.278Z,26.00
2018-08-23T08:03:12.071Z,26.30
2018-08-23T08:05:41.117Z,26.50
2018-08-23T08:08:09.825Z,26.40
2018-08-23T08:10:38.882Z,26.40
2018-08-23T08:13:06.580Z,26.50
2018-08-23T08:15:34.205Z,26.50
2018-08-23T08:18:08.919Z,26.60
2018-08-23T08:20:36.618Z,27.10
2018-08-23T08:23:04.279Z,27.40
2018-08-23T08:25:32.300Z,27.40
2018-08-23T08:28:00.236Z,27.30
2018-08-23T08:30:39.721Z,27.30
2018-08-23T08:33:08.706Z,27.60
2018-08-23T08:35:37.778Z,27.60
2018-08-23T08:38:05.627Z,27.70
2018-08-23T08:40:33.458Z,27.60
2018-08-23T08:43:02.043Z,27.70
2018-08-23T08:45:30.116Z,27.80
2018-08-23T08:48:44.207Z,28.00
2018-08-23T08:51:23.724Z,28.10
2018-08-23T08:53:52.380Z,28.00
2018-08-23T08:56:27.053Z,28.30
2018-08-23T08:58:54.718Z,28.50
2018-08-23T09:01:22.512Z,28.50
2018-08-23T09:03:50.248Z,28.60
2018-08-23T09:06:22.996Z,28.90
2018-08-23T09:08:50.806Z,29.00
2018-08-23T09:11:21.677Z,29.10
2018-08-23T09:13:49.771Z,28.90
2018-08-23T09:16:21.395Z,29.00
2018-08-23T09:18:58.497Z,28.80
2018-08-23T09:21:26.498Z,28.90
2018-08-23T09:23:54.204Z,29.10
2018-08-23T09:26:26.800Z,29.40
2018-08-23T09:28:54.468Z,29.50
2018-08-23T09:31:22.275Z,29.30
2018-08-23T09:33:49.906Z,29.40
2018-08-23T09:36:17.538Z,29.50
2018-08-23T09:38:45.532Z,29.50
2018-08-23T09:41:13.249Z,29.50
2018-08-23T09:43:40.873Z,29.50
2018-08-23T09:46:08.633Z,29.70
2018-08-23T09:48:36.389Z,29.70
2018-08-23T09:51:16.280Z,29.70
2018-08-23T09:53:44.244Z,29.90
2018-08-23T09:56:17.405Z,29.90
2018-08-23T09:58:45.157Z,30.00
2018-08-23T10:01:18.406Z,30.00
2018-08-23T10:03:51.772Z,30.20
2018-08-23T10:06:21.967Z,30.20
2018-08-23T10:09:02.390Z,30.40
2018-08-23T10:11:35.974Z,30.50
2018-08-23T10:14:09.429Z,30.40
2018-08-23T10:16:43.069Z,30.60
2018-08-23T10:19:16.376Z,30.80
2018-08-23T10:21:49.678Z,31.10
2018-08-23T10:24:23.294Z,31.10
2018-08-23T10:26:52.108Z,31.00
2018-08-23T10:29:19.889Z,31.30
2018-08-23T10:31:47.780Z,31.10
2018-08-23T10:34:15.433Z,31.10
2018-08-23T10:36:43.404Z,31.00
2018-08-23T10:39:12.378Z,31.00
2018-08-23T10:41:40.288Z,31.10
2018-08-23T10:44:08.003Z,31.10
2018-08-23T10:46:41.566Z,31.40
2018-08-23T10:49:09.378Z,31.40
2018-08-23T10:51:37.040Z,31.40
2018-08-23T10:54:04.755Z,31.70
2018-08-23T10:56:32.426Z,31.70
2018-08-23T10:59:00.135Z,31.90
2018-08-23T11:01:27.792Z,31.90
2018-08-23T11:03:59.162Z,32.10
2018-08-23T11:06:26.940Z,31.90
2018-08-23T11:09:01.429Z,31.90
2018-08-23T11:11:32.723Z,32.00
2018-08-23T11:14:06.568Z,32.00
2018-08-23T11:16:40.168Z,32.40
2018-08-23T11:19:13.578Z,32.30
2018-08-23T11:21:41.296Z,32.40
2018-08-23T11:24:08.998Z,32.70
2018-08-23T11:26:36.666Z,32.70
2018-08-23T11:29:04.435Z,32.90
2018-08-23T11:31:32.185Z,33.00
2018-08-23T11:33:59.776Z,33.10
2018-08-23T11:36:27.458Z,33.20
2018-08-23T11:38:55.135Z,33.10
2018-08-23T11:41:22.938Z,33.30
2018-08-23T11:43:50.609Z,33.90
2018-08-23T11:46:19.610Z,34.70
2018-08-23T11:48:48.247Z,35.90
2018-08-23T11:51:16.722Z,37.10
2018-08-23T11:53:44.981Z,38.10
2018-08-23T11:56:12.390Z,38.50
2018-08-23T11:58:41.119Z,38.90
2018-08-23T12:01:10.005Z,40.20
2018-08-23T12:03:38.252Z,41.80
2018-08-23T12:06:06.746Z,42.80
2018-08-23T12:08:34.388Z,44.20
2018-08-23T12:11:02.048Z,45.80
2018-08-23T12:13:29.703Z,47.00
2018-08-23T12:15:57.356Z,46.20
2018-08-23T12:18:31.020Z,44.30
2018-08-23T12:20:58.663Z,44.50
2018-08-23T12:23:26.355Z,46.10
2018-08-23T12:25:54.187Z,43.60
2018-08-23T12:28:27.607Z,43.40
2018-08-23T12:30:55.371Z,41.20
2018-08-23T12:33:23.135Z,40.70
2018-08-23T12:35:50.937Z,42.80
2018-08-23T12:38:24.500Z,44.40
2018-08-23T12:40:57.867Z,45.50
2018-08-23T12:43:30.198Z,46.90
2018-08-23T12:46:02.016Z,48.00
2018-08-23T12:48:29.794Z,47.40
2018-08-23T12:50:57.836Z,45.30
2018-08-23T12:53:27.743Z,47.30
2018-08-23T12:55:55.496Z,48.80
2018-08-23T12:58:23.220Z,48.20
2018-08-23T13:00:50.846Z,46.10
2018-08-23T13:03:18.602Z,47.80
2018-08-23T13:05:47.843Z,47.80
2018-08-23T13:08:15.586Z,46.70
2018-08-23T13:10:43.232Z,45.60
2018-08-23T13:13:10.894Z,41.90
2018-08-23T13:15:38.595Z,39.90
2018-08-23T13:18:06.332Z,39.70
2018-08-23T13:20:34.088Z,40.10
2018-08-23T13:23:01.726Z,40.50
2018-08-23T13:25:29.434Z,43.10
2018-08-23T13:27:57.121Z,44.50
2018-08-23T13:30:24.927Z,45.50
2018-08-23T13:32:52.584Z,46.50
2018-08-23T13:37:59.982Z,43.20
2018-08-23T13:40:27.569Z,42.90
2018-08-23T13:42:55.173Z,44.80
2018-08-23T13:45:23.021Z,45.60
2018-08-23T13:47:50.751Z,44.80
2018-08-23T13:50:18.513Z,43.90
2018-08-23T13:52:46.463Z,46.10
2018-08-23T13:55:14.124Z,44.30
2018-08-23T13:57:41.897Z,43.80
2018-08-23T14:00:14.294Z,43.20
2018-08-23T14:02:42.041Z,44.50
2018-08-23T14:05:09.787Z,46.00
2018-08-23T14:07:37.643Z,46.00
2018-08-23T14:10:05.375Z,46.40
2018-08-23T14:12:33.188Z,45.40
2018-08-23T14:15:00.967Z,45.10
2018-08-23T14:17:28.735Z,43.60
2018-08-23T14:19:56.458Z,43.30
2018-08-23T14:22:24.187Z,42.30
2018-08-23T14:24:52.035Z,41.60
2018-08-23T14:27:19.937Z,40.30
2018-08-23T14:29:48.731Z,39.70
2018-08-23T14:32:16.512Z,38.70
2018-08-23T14:34:44.306Z,37.90
2018-08-23T14:37:12.201Z,37.70
2018-08-23T14:39:40.040Z,37.10
2018-08-23T14:42:07.792Z,37.10
2018-08-23T14:44:35.517Z,38.20
2018-08-23T14:47:09.021Z,38.30
2018-08-23T14:49:36.805Z,37.90
2018-08-23T14:52:05.363Z,37.40
2018-08-23T14:54:38.823Z,36.20
2018-08-23T14:57:12.371Z,35.30
2018-08-23T14:59:40.441Z,35.10
2018-08-23T15:02:08.560Z,34.70
2018-08-23T15:04:36.675Z,34.50
2018-08-23T15:07:04.845Z,34.20
2018-08-23T15:09:32.582Z,34.10
2018-08-23T15:12:00.987Z,33.80
2018-08-23T15:14:28.877Z,33.60
2018-08-23T15:16:56.700Z,33.50
2018-08-23T15:19:24.557Z,33.40
2018-08-23T15:21:52.808Z,33.10
2018-08-23T15:24:20.541Z,33.00
2018-08-23T15:26:48.426Z,32.90
2018-08-23T15:29:16.129Z,32.70
2018-08-23T15:31:44.703Z,32.50
2018-08-23T15:34:12.844Z,32.70
2018-08-23T15:36:40.917Z,32.60
2018-08-23T15:39:11.604Z,32.30
2018-08-23T15:41:40.036Z,31.80
2018-08-23T15:44:08.197Z,31.40
2018-08-23T15:46:41.984Z,31.20
2018-08-23T15:49:09.902Z,30.80
2018-08-23T15:51:38.639Z,30.20
2018-08-23T15:54:07.238Z,29.10
2018-08-23T15:56:35.318Z,28.30
2018-08-23T15:59:03.138Z,27.60
2018-08-23T16:01:31.298Z,26.90
2018-08-23T16:03:59.049Z,26.70
2018-08-23T16:06:27.270Z,26.60
2018-08-23T16:08:55.201Z,26.20
2018-08-23T16:11:24.178Z,26.00
2018-08-23T16:13:52.276Z,25.80
2018-08-23T16:16:25.750Z,26.00
2018-08-23T16:18:59.394Z,26.10
2018-08-23T16:21:32.859Z,26.10
2018-08-23T16:24:00.815Z,26.10
2018-08-23T16:26:34.338Z,26.10
2018-08-23T16:29:02.179Z,25.90
2018-08-23T16:31:30.214Z,25.90
2018-08-23T16:33:58.264Z,25.80
2018-08-23T16:36:27.428Z,25.90
2018-08-23T16:38:55.328Z,26.10
2018-08-23T16:41:23.195Z,26.10
2018-08-23T16:43:50.923Z,26.10
2018-08-23T16:46:18.704Z,26.10
2018-08-23T16:48:46.417Z,26.10
2018-08-23T16:51:14.150Z,26.00
2018-08-23T16:53:42.413Z,26.10
2018-08-23T16:56:10.112Z,26.10
2018-08-23T16:58:38.013Z,26.20
2018-08-23T17:01:05.699Z,26.30
2018-08-23T17:03:33.494Z,26.40
2018-08-23T17:06:01.313Z,26.30
2018-08-23T17:08:29.110Z,26.10
2018-08-23T17:10:56.951Z,26.00
2018-08-23T17:13:30.472Z,26.00
2018-08-23T17:16:03.990Z,26.10
2018-08-23T17:18:31.666Z,25.90
2018-08-23T17:20:59.353Z,25.80
2018-08-23T17:23:27.116Z,25.90
2018-08-23T17:25:55.004Z,25.90
2018-08-23T17:28:22.782Z,25.90
2018-08-23T17:30:50.530Z,25.80
2018-08-23T17:33:18.142Z,25.80
2018-08-23T17:35:45.987Z,25.80
2018-08-23T17:38:13.734Z,25.80
2018-08-23T17:40:41.402Z,25.60
2018-08-23T17:43:09.098Z,25.50
2018-08-23T17:45:36.822Z,25.50
2018-08-23T17:48:04.866Z,25.50
2018-08-23T17:50:32.558Z,25.40
2018-08-23T17:53:01.184Z,25.30
2018-08-23T17:55:29.054Z,25.30
2018-08-23T17:57:56.771Z,25.10
2018-08-23T18:00:24.576Z,24.90
2018-08-23T18:02:52.690Z,24.90
2018-08-23T18:05:20.542Z,24.90
2018-08-23T18:07:48.265Z,24.90
2018-08-23T18:10:15.905Z,24.80
2018-08-23T18:12:43.563Z,24.70
2018-08-23T18:15:11.237Z,24.50
2018-08-23T18:17:39.671Z,24.50
2018-08-23T18:20:07.758Z,24.40
2018-08-23T18:22:35.791Z,24.50
2018-08-23T18:25:03.539Z,24.40
2018-08-23T18:27:31.349Z,24.50
2018-08-23T18:29:59.039Z,24.50
2018-08-23T18:32:26.888Z,24.50
2018-08-23T18:34:54.666Z,24.40
2018-08-23T18:37:22.541Z,24.40
2018-08-23T18:39:50.665Z,24.50
2018-08-23T18:42:18.401Z,24.50
2018-08-23T18:44:46.223Z,24.40
2018-08-23T18:47:14.611Z,24.40
2018-08-23T18:49:42.644Z,24.50
2018-08-23T18:52:10.412Z,24.50
2018-08-23T18:54:38.189Z,24.50
2018-08-23T18:57:06.107Z,24.60
2018-08-23T18:59:33.870Z,24.50
2018-08-23T19:02:01.753Z,24.50
2018-08-23T19:04:29.581Z,24.50
2018-08-23T19:06:57.612Z,24.50
2018-08-23T19:09:25.461Z,24.40
2018-08-23T19:11:53.365Z,24.40
2018-08-23T19:14:22.293Z,24.50
2018-08-23T19:16:55.845Z,24.40
2018-08-23T19:19:23.762Z,24.40
2018-08-23T19:21:51.695Z,24.40
2018-08-23T19:24:19.695Z,24.40
2018-08-23T19:26:47.471Z,24.40
2018-08-23T19:29:15.199Z,24.30
2018-08-23T19:31:42.928Z,24.30
2018-08-23T19:34:10.664Z,24.30
2018-08-23T19:36:38.473Z,24.40
2018-08-23T19:39:09.433Z,24.30
2018-08-23T19:41:37.273Z,24.30
2018-08-23T19:44:05.236Z,24.30
2018-08-23T19:46:38.828Z,24.20
2018-08-23T19:49:12.466Z,24.10
2018-08-23T19:51:40.267Z,24.00
2018-08-23T19:54:08.018Z,24.00
2018-08-23T19:56:36.199Z,24.00
2018-08-23T19:59:03.940Z,24.00
2018-08-23T20:01:31.733Z,24.00
2018-08-23T20:03:59.470Z,24.00
2018-08-23T20:06:27.420Z,23.90
2018-08-23T20:08:55.180Z,24.00
2018-08-23T20:11:23.476Z,24.00
2018-08-23T20:13:51.268Z,24.00
2018-08-23T20:16:18.962Z,24.00
2018-08-23T20:18:46.956Z,23.90
2018-08-23T20:21:14.847Z,23.90
2018-08-23T20:23:42.602Z,23.80
2018-08-23T20:26:10.487Z,23.90
2018-08-23T20:28:38.134Z,23.90
2018-08-23T20:31:05.948Z,23.80
2018-08-23T20:33:33.675Z,23.80
2018-08-23T20:36:01.358Z,23.80
2018-08-23T20:38:29.096Z,23.80
2018-08-23T20:40:56.762Z,23.80
2018-08-23T20:43:24.468Z,23.80
2018-08-23T20:45:52.120Z,23.90
2018-08-23T20:48:19.824Z,23.90
2018-08-23T20:50:47.495Z,24.00
2018-08-23T20:53:15.311Z,24.10
2018-08-23T20:55:43.045Z,24.10
2018-08-23T20:58:10.752Z,24.10
2018-08-23T21:00:38.448Z,24.10
2018-08-23T21:03:06.130Z,24.10
2018-08-23T21:05:33.897Z,24.20
2018-08-23T21:08:01.675Z,24.10
2018-08-23T21:10:29.324Z,24.10
2018-08-23T21:12:57.075Z,24.10
2018-08-23T21:15:24.747Z,24.00
2018-08-23T21:17:52.595Z,23.90
2018-08-23T21:20:20.202Z,24.00
2018-08-23T21:22:47.877Z,23.90
2018-08-23T21:25:15.565Z,24.00
2018-08-23T21:27:43.199Z,24.00
2018-08-23T21:30:10.903Z,24.10
2018-08-23T21:32:38.609Z,24.10
2018-08-23T21:35:06.356Z,24.20
2018-08-23T21:37:34.043Z,24.10
2018-08-23T21:40:01.777Z,24.10
2018-08-23T21:42:29.524Z,24.10
2018-08-23T21:44:57.204Z,24.00
2018-08-23T21:47:24.883Z,23.90
2018-08-23T21:49:52.634Z,24.00
2018-08-23T21:52:20.342Z,23.90
2018-08-23T21:54:48.008Z,24.00
2018-08-23T21:57:15.700Z,24.00
2018-08-23T21:59:43.360Z,24.00
2018-08-23T22:02:17.621Z,23.90
2018-08-23T22:04:52.918Z,23.80
2018-08-23T22:07:20.868Z,23.70
2018-08-23T22:09:50.487Z,23.70
2018-08-23T22:12:20.450Z,23.70
2018-08-23T22:14:49.102Z,23.70
2018-08-23T22:17:17.168Z,23.60
2018-08-23T22:19:44.820Z,23.70
2018-08-23T22:22:12.538Z,23.70
2018-08-23T22:24:40.172Z,23.80
2018-08-23T22:27:08.322Z,23.80
2018-08-23T22:29:36.525Z,23.90
2018-08-23T22:32:04.602Z,23.80
2018-08-23T22:34:32.261Z,23.70
2018-08-23T22:36:59.984Z,23.70
2018-08-23T22:39:28.290Z,23.90
2018-08-23T22:41:56.006Z,23.90
2018-08-23T22:44:23.874Z,23.80
2018-08-23T22:46:51.358Z,23.70
2018-08-23T22:49:19.072Z,23.70
2018-08-23T22:51:46.760Z,23.60
2018-08-23T22:54:14.610Z,23.60
2018-08-23T22:56:42.659Z,23.50
2018-08-23T22:59:10.562Z,23.50
2018-08-23T23:01:38.650Z,23.40
2018-08-23T23:04:12.146Z,23.20
2018-08-23T23:06:39.838Z,23.20
2018-08-23T23:09:10.723Z,23.30
2018-08-23T23:11:38.376Z,23.20
2018-08-23T23:14:06.240Z,23.20
2018-08-23T23:16:34.200Z,23.20
2018-08-23T23:19:01.986Z,23.20
2018-08-23T23:21:29.788Z,23.20
2018-08-23T23:23:57.372Z,23.20
2018-08-23T23:26:25.010Z,23.20
2018-08-23T23:28:52.721Z,23.20
2018-08-23T23:31:20.366Z,23.30
2018-08-23T23:33:48.020Z,23.20
2018-08-23T23:36:15.809Z,23.20
2018-08-23T23:38:43.542Z,23.20
2018-08-23T23:41:11.197Z,23.20
2018-08-23T23:43:38.882Z,23.20
2018-08-23T23:46:06.536Z,23.20
2018-08-23T23:48:34.541Z,23.10
2018-08-23T23:51:02.277Z,22.90
2018-08-23T23:53:30.015Z,22.90
2018-08-23T23:55:57.757Z,22.80
2018-08-23T23:58:25.443Z,22.60
